Warren, NH

10:50 AM EST on February 14, 2016 (GMT -0500)
Red Oak Hill and East Side RD | | Change Station
CLOSE
Current Station
Personal Weather Station
Location: Wentworth, NH
Elevation: 720 ft
Nearby Weather Stations

Elev 720 ft 43.89 °N, 71.90 °W | Updated 8 seconds ago

Clear
Clear
-4.4 °F
Feels Like -16 °F
N
4.9
Wind Variable Wind from North
Gusts 8.1 mph

Today
High -- | Low -- °F
--% Chance of Precip.
Yesterday
High -- | Low -- °F
Precip. -- in
Pressure 30.33 in
Visibility 10.0 miles
Clouds Clear
Windchill -16 °F
Dew Point -18 °F
Humidity 52%
Rainfall 0.00 in
Snow Depth Not available.
6:48 AM 5:15 PM
Waxing Crescent, 43% visible
METAR K1P1 141535Z AUTO 29014G23KT 10SM CLR M21/M30 A3033 RMK AO2 T12101298
Pressure 30.33 in
Visibility 10.0 miles
Clouds Clear
Windchill -16 °F
Dew Point -18 °F
Humidity 52%
Rainfall 0.00 in
Snow Depth Not available.
6:48 AM 5:15 PM
Waxing Crescent, 43% visible
METAR K1P1 141535Z AUTO 29014G23KT 10SM CLR M21/M30 A3033 RMK AO2 T12101298

10-Day Weather Forecast

Almanac

Astronomy

Feb. 14, 2016 Rise Set
Actual Time
Civil Twilight
Nautical Twilight
Astronomical Twilight
Moon
Length of Visible Light
Length of Day
Tomorrow will be .
, % of the Moon is Illuminated

Today's Extremes

State Highs State Lows

Community

WunderPhotos

Upload Photos

1,892,802 photos uploaded!

WunderBlog® & News

Nearby

Air Quality

  Air Quality AQ Index Pollutant
Not available.

Snow Depth

Station Depth Elevation

Earthquake Activity

City Distance Mag. Time & Date
Minimum magnitude displayed is 2.5.

Coastal Water Temperatures

Place Temperature

Stations

Nearby Weather Stations

Station Location Temp. Windchill Dew Point Humidity Wind Precip. Elev Updated Type
                   

Watches & Warnings

There are currently no watches in effect.